Time,TemperatureF,DewpointF,PressureIn,WindDirection,WindDirectionDegrees,WindSpeedMPH,WindSpeedGustMPH,Humidity,HourlyPrecipIn,Conditions,Clouds,dailyrainin,SoftwareType,DateUTC
2013-10-30 00:22:00,44.0,-99.9,30.19,North,-999,7.0,9.0,-999,-99.99,,,-99.99,,2013-10-30 05:22:00,
2013-10-30 00:53:00,44.0,-99.9,30.19,North,-999,4.0,4.0,-999,-99.99,,,-99.99,,2013-10-30 05:53:00,
2013-10-30 01:22:00,44.0,-99.9,30.17,North,-999,4.0,7.0,-999,-99.99,,,-99.99,,2013-10-30 06:22:00,
2013-10-30 01:42:00,44.0,-99.9,30.16,North,-999,7.0,7.0,-999,-99.99,,,-99.99,,2013-10-30 06:42:00,
2013-10-30 01:53:00,44.0,-99.9,30.16,North,-999,7.0,7.0,-999,-99.99,,,-99.99,,2013-10-30 06:53:00,
2013-10-30 02:22:00,45.0,-99.9,30.16,North,-999,7.0,7.0,-999,-99.99,,,-99.99,,2013-10-30 07:22:00,
2013-10-30 02:42:00,45.0,-99.9,30.16,North,-999,7.0,9.0,-999,-99.99,,,-99.99,,2013-10-30 07:42:00,
2013-10-30 02:52:00,45.0,-99.9,30.16,North,-999,7.0,9.0,-999,-99.99,,,-99.99,,2013-10-30 07:52:00,
2013-10-30 03:22:00,45.0,-99.9,30.15,North,-999,7.0,7.0,-999,-99.99,,,-99.99,,2013-10-30 08:22:00,
2013-10-30 03:42:00,45.0,-99.9,30.14,North,-999,7.0,9.0,-999,-99.99,,,-99.99,,2013-10-30 08:42:00,
2013-10-30 03:52:00,45.0,-99.9,30.14,North,-999,7.0,9.0,-999,-99.99,,,-99.99,,2013-10-30 08:52:00,
2013-10-30 04:22:00,45.0,-99.9,30.14,North,-999,4.0,4.0,-999,-99.99,,,-99.99,,2013-10-30 09:22:00,
2013-10-30 04:43:00,45.0,-99.9,30.14,North,-999,4.0,4.0,-999,-99.99,,,-99.99,,2013-10-30 09:43:00,
2013-10-30 04:54:00,45.0,-99.9,30.14,North,-999,4.0,4.0,-999,-99.99,,,-99.99,,2013-10-30 09:54:00,
2013-10-30 05:23:00,45.0,-99.9,30.13,North,-999,7.0,9.0,-999,-99.99,,,-99.99,,2013-10-30 10:23:00,
2013-10-30 05:53:00,45.0,-99.9,30.12,North,-999,9.0,9.0,-999,-99.99,,,-99.99,,2013-10-30 10:53:00,
2013-10-30 06:22:00,45.0,-99.9,30.12,North,-999,7.0,9.0,-999,-99.99,,,-99.99,,2013-10-30 11:22:00,
2013-10-30 06:52:00,45.0,-99.9,30.13,North,-999,7.0,7.0,-999,-99.99,,,-99.99,,2013-10-30 11:52:00,
2013-10-30 07:22:00,46.0,-99.9,30.13,North,-999,4.0,7.0,-999,-99.99,,,-99.99,,2013-10-30 12:22:00,
2013-10-30 07:52:00,46.0,-99.9,30.12,North,-999,4.0,7.0,-999,-99.99,,,-99.99,,2013-10-30 12:52:00,
2013-10-30 08:22:00,46.0,-99.9,30.12,North,-999,7.0,7.0,-999,-99.99,,,-99.99,,2013-10-30 13:22:00,
2013-10-30 08:42:00,46.0,-99.9,30.12,North,-999,7.0,7.0,-999,-99.99,,,-99.99,,2013-10-30 13:42:00,
2013-10-30 08:52:00,46.0,-99.9,30.12,North,-999,7.0,7.0,-999,-99.99,,,-99.99,,2013-10-30 13:52:00,
2013-10-30 09:11:00,46.0,-99.9,30.11,North,-999,7.0,7.0,-999,-99.99,,,-99.99,,2013-10-30 14:11:00,
2013-10-30 09:22:00,46.0,-99.9,30.11,North,-999,7.0,7.0,-999,-99.99,,,-99.99,,2013-10-30 14:22:00,
2013-10-30 09:42:00,47.0,-99.9,30.11,North,-999,7.0,9.0,-999,-99.99,,,-99.99,,2013-10-30 14:42:00,
2013-10-30 09:52:00,47.0,-99.9,30.11,North,-999,7.0,9.0,-999,-99.99,,,-99.99,,2013-10-30 14:52:00,
2013-10-30 10:22:00,47.0,-99.9,30.10,North,-999,9.0,9.0,-999,-99.99,,,-99.99,,2013-10-30 15:22:00,
2013-10-30 10:54:00,48.0,-99.9,30.10,North,-999,7.0,7.0,-999,-99.99,,,-99.99,,2013-10-30 15:54:00,
2013-10-30 11:23:00,49.0,-99.9,30.09,North,-999,7.0,7.0,-999,-99.99,,,-99.99,,2013-10-30 16:23:00,
2013-10-30 11:54:00,49.0,-99.9,30.09,North,-999,7.0,7.0,-999,-99.99,,,-99.99,,2013-10-30 16:54:00,
2013-10-30 12:23:00,49.0,-99.9,30.09,North,-999,7.0,9.0,-999,-99.99,,,-99.99,,2013-10-30 17:23:00,
2013-10-30 12:52:00,49.0,-99.9,30.06,North,-999,4.0,4.0,-999,-99.99,,,-99.99,,2013-10-30 17:52:00,
2013-10-30 13:22:00,49.0,-99.9,30.05,North,-999,4.0,4.0,-999,-99.99,,,-99.99,,2013-10-30 18:22:00,
2013-10-30 13:52:00,50.0,-99.9,30.05,North,-999,4.0,4.0,-999,-99.99,,,-99.99,,2013-10-30 18:52:00,
2013-10-30 14:22:00,50.0,-99.9,30.03,North,-999,2.0,2.0,-999,-99.99,,,-99.99,,2013-10-30 19:22:00,
2013-10-30 14:52:00,49.0,-99.9,30.01,North,-999,2.0,2.0,-999,-99.99,,,-99.99,,2013-10-30 19:52:00,
2013-10-30 15:22:00,50.0,-99.9,30.01,North,-999,2.0,4.0,-999,-99.99,,,-99.99,,2013-10-30 20:22:00,
2013-10-30 15:52:00,50.0,-99.9,29.98,North,-999,2.0,2.0,-999,-99.99,,,-99.99,,2013-10-30 20:52:00,
2013-10-30 16:22:00,52.0,-99.9,29.96,North,-999,13.0,16.0,-999,-99.99,,,-99.99,,2013-10-30 21:22:00,
2013-10-30 17:23:00,51.0,-99.9,29.95,North,-999,11.0,13.0,-999,-99.99,,,-99.99,,2013-10-30 22:23:00,
2013-10-30 17:54:00,51.0,-99.9,29.94,North,-999,11.0,13.0,-999,-99.99,,,-99.99,,2013-10-30 22:54:00,
2013-10-30 18:23:00,51.0,-99.9,29.90,North,-999,11.0,16.0,-999,-99.99,,,-99.99,,2013-10-30 23:23:00,
2013-10-30 18:42:00,51.0,-99.9,29.90,North,-999,16.0,18.0,-999,-99.99,,,-99.99,,2013-10-30 23:42:00,
2013-10-30 18:53:00,51.0,-99.9,29.90,North,-999,16.0,18.0,-999,-99.99,,,-99.99,,2013-10-30 23:53:00,
2013-10-30 19:22:00,51.0,-99.9,29.91,North,-999,9.0,13.0,-999,-99.99,,,-99.99,,2013-10-31 00:22:00,
2013-10-30 19:42:00,51.0,-99.9,29.90,North,-999,7.0,9.0,-999,-99.99,,,-99.99,,2013-10-31 00:42:00,
2013-10-30 19:52:00,51.0,-99.9,29.90,North,-999,7.0,9.0,-999,-99.99,,,-99.99,,2013-10-31 00:52:00,
2013-10-30 20:22:00,51.0,-99.9,29.89,North,-999,7.0,9.0,-999,-99.99,,,-99.99,,2013-10-31 01:22:00,
2013-10-30 20:53:00,50.0,-99.9,29.88,North,-999,4.0,7.0,-999,-99.99,,,-99.99,,2013-10-31 01:53:00,
2013-10-30 21:12:00,51.0,-99.9,29.86,North,-999,4.0,7.0,-999,-99.99,,,-99.99,,2013-10-31 02:12:00,
2013-10-30 21:22:00,51.0,-99.9,29.86,North,-999,4.0,7.0,-999,-99.99,,,-99.99,,2013-10-31 02:22:00,
2013-10-30 21:53:00,51.0,-99.9,29.85,North,-999,9.0,13.0,-999,-99.99,,,-99.99,,2013-10-31 02:53:00,
2013-10-30 22:22:00,52.0,-99.9,29.83,North,-999,11.0,13.0,-999,-99.99,,,-99.99,,2013-10-31 03:22:00,
2013-10-30 22:44:00,52.0,-99.9,29.80,North,-999,9.0,11.0,-999,-99.99,,,-99.99,,2013-10-31 03:44:00,
2013-10-30 22:55:00,52.0,-99.9,29.80,North,-999,9.0,11.0,-999,-99.99,,,-99.99,,2013-10-31 03:55:00,
2013-10-30 23:24:00,51.0,-99.9,29.79,North,-999,11.0,13.0,-999,-99.99,,,-99.99,,2013-10-31 04:24:00,
2013-10-30 23:44:00,51.0,-99.9,29.77,North,-999,13.0,16.0,-999,-99.99,,,-99.99,,2013-10-31 04:44:00,
2013-10-30 23:55:00,51.0,-99.9,29.77,North,-999,13.0,16.0,-999,-99.99,,,-99.99,,2013-10-31 04:55:00,